Time;durP1;ratioP1;P1;durP2;ratioP2;P2;SDS_P1;SDS_P2;PMS_P1;PMS_P2;Temp;Humidity;BMP_temperature;BMP_pressure;BME280_temperature;BME280_humidity;BME280_pressure;Samples;Min_cycle;Max_cycle;Signal;HPM_P1;HPM_P2
2023/09/25 00:02:06;;;;;;;2.63;2.30;;;;;;;11.60;87.85;101755.94;5047796;28;20240;-79
2023/09/25 00:04:33;;;;;;;2.83;2.63;;;;;;;11.58;87.87;101763.16;5042671;28;20579;-80
2023/09/25 00:07:03;;;;;;;3.57;2.20;;;;;;;11.57;88.11;101766.75;5037319;28;20214;-80
2023/09/25 00:09:30;;;;;;;2.73;2.20;;;;;;;11.53;88.21;101772.31;5050363;28;20300;-79
2023/09/25 00:11:56;;;;;;;2.70;2.23;;;;;;;11.53;88.45;101773.19;5048091;28;20232;-79
2023/09/25 00:14:23;;;;;;;2.47;2.00;;;;;;;11.51;88.41;101769.72;5055834;28;20209;-79
2023/09/25 00:16:49;;;;;;;3.10;2.43;;;;;;;11.47;88.33;101768.16;5043398;28;20207;-80
2023/09/25 00:19:16;;;;;;;2.27;2.00;;;;;;;11.45;88.69;101772.72;5055309;28;20200;-79
2023/09/25 00:21:43;;;;;;;3.20;2.30;;;;;;;11.41;88.89;101771.13;5054360;28;20236;-79
2023/09/25 00:24:10;;;;;;;3.10;2.37;;;;;;;11.39;89.11;101770.34;5048075;28;20240;-80
2023/09/25 00:26:37;;;;;;;2.97;2.13;;;;;;;11.37;89.26;101767.75;5049545;28;20698;-80
2023/09/25 00:29:04;;;;;;;2.80;2.23;;;;;;;11.34;89.29;101764.34;5051477;28;20868;-80
2023/09/25 00:31:30;;;;;;;2.70;2.20;;;;;;;11.29;89.45;101767.25;5054905;28;20273;-79
2023/09/25 00:33:57;;;;;;;2.93;2.20;;;;;;;11.25;89.60;101762.16;5048293;28;20245;-80
2023/09/25 00:36:23;;;;;;;2.77;2.47;;;;;;;11.23;89.38;101761.34;5054386;28;20208;-79
2023/09/25 00:38:50;;;;;;;2.50;2.30;;;;;;;11.17;89.63;101769.66;5054609;28;20600;-79
2023/09/25 00:41:17;;;;;;;3.67;2.87;;;;;;;11.12;90.08;101761.84;5053881;28;20253;-79
2023/09/25 00:43:44;;;;;;;3.40;2.30;;;;;;;11.12;90.49;101769.84;5054403;28;20227;-79
2023/09/25 00:46:10;;;;;;;2.53;2.33;;;;;;;11.11;90.64;101766.31;5054654;28;20221;-79
2023/09/25 00:48:42;;;;;;;3.80;2.73;;;;;;;11.12;90.51;101760.06;5046564;28;20211;-79
2023/09/25 00:51:09;;;;;;;2.50;2.30;;;;;;;11.12;90.44;101765.38;5049280;28;20757;-80
2023/09/25 00:53:36;;;;;;;3.13;2.60;;;;;;;11.11;90.69;101762.78;5050806;28;20207;-80
2023/09/25 00:56:03;;;;;;;3.17;2.20;;;;;;;11.10;90.47;101769.09;5047095;28;20221;-80
2023/09/25 00:58:31;;;;;;;3.60;2.73;;;;;;;11.06;90.57;101767.50;5049296;28;20205;-79
2023/09/25 01:00:58;;;;;;;2.57;2.37;;;;;;;11.04;90.76;101764.03;5045190;28;20227;-79
2023/09/25 01:03:25;;;;;;;4.30;2.60;;;;;;;11.03;90.81;101770.31;5050701;28;20209;-80
2023/09/25 01:05:51;;;;;;;2.63;2.30;;;;;;;10.99;90.92;101766.91;5049769;28;20611;-80
2023/09/25 01:08:18;;;;;;;2.93;2.20;;;;;;;10.94;90.90;101760.94;5046578;28;20213;-80
2023/09/25 01:10:45;;;;;;;2.60;2.40;;;;;;;10.91;91.10;101763.75;5050595;28;20232;-80
2023/09/25 01:13:11;;;;;;;2.67;2.27;;;;;;;10.90;91.38;101763.84;5049267;28;20206;-79
2023/09/25 01:15:39;;;;;;;2.70;2.50;;;;;;;10.87;91.37;101764.84;5048481;28;20207;-80
2023/09/25 01:18:06;;;;;;;2.83;2.47;;;;;;;10.86;91.68;101773.78;5052740;28;20210;-79
2023/09/25 01:20:32;;;;;;;3.33;2.80;;;;;;;10.84;91.44;101766.78;5047818;28;20221;-79
2023/09/25 01:23:01;;;;;;;2.60;2.40;;;;;;;10.81;91.70;101769.59;5050950;28;20230;-79
2023/09/25 01:25:28;;;;;;;2.70;2.50;;;;;;;10.77;91.90;101768.84;5052338;28;20234;-79
2023/09/25 01:27:54;;;;;;;2.70;2.23;;;;;;;10.73;92.15;101770.81;5052398;28;20213;-79
2023/09/25 01:30:21;;;;;;;3.43;2.37;;;;;;;10.70;92.17;101756.78;5044925;28;20697;-79
2023/09/25 01:32:51;;;;;;;3.83;2.47;;;;;;;10.69;92.51;101755.91;5038078;28;20206;-80
2023/09/25 01:35:19;;;;;;;3.47;2.67;;;;;;;10.67;92.50;101757.78;5047644;28;20257;-79
2023/09/25 01:37:46;;;;;;;5.13;3.30;;;;;;;10.64;92.84;101747.25;5049529;28;20742;-79
2023/09/25 01:40:17;;;;;;;3.13;2.83;;;;;;;10.62;92.69;101749.13;5051626;28;20214;-81
2023/09/25 01:42:44;;;;;;;4.00;3.43;;;;;;;10.59;92.68;101738.59;5043813;28;20228;-79
2023/09/25 01:45:13;;;;;;;4.10;3.17;;;;;;;10.56;92.93;101743.22;5048564;28;20255;-80
2023/09/25 01:47:40;;;;;;;3.60;3.23;;;;;;;10.54;92.86;101742.44;5047854;28;20672;-79
2023/09/25 01:50:09;;;;;;;2.93;2.70;;;;;;;10.51;93.36;101739.91;5049547;28;20208;-79
2023/09/25 01:52:36;;;;;;;8.27;3.60;;;;;;;10.47;93.34;101736.50;5045861;28;20674;-79
2023/09/25 01:55:03;;;;;;;4.80;3.00;;;;;;;10.44;93.61;101726.84;5043975;28;20651;-79
2023/09/25 01:57:31;;;;;;;3.03;2.73;;;;;;;10.43;93.64;101725.13;5044316;28;20207;-79
2023/09/25 01:59:58;;;;;;;2.40;2.20;;;;;;;10.40;93.61;101717.25;5047736;28;20210;-79
2023/09/25 02:02:24;;;;;;;2.60;2.40;;;;;;;10.39;93.62;101731.50;5044779;28;20267;-80
2023/09/25 02:04:51;;;;;;;3.33;3.03;;;;;;;10.36;93.24;101720.16;5048083;28;20214;-79
2023/09/25 02:07:18;;;;;;;2.70;2.50;;;;;;;10.32;93.38;101718.56;5050823;28;20206;-79
2023/09/25 02:09:45;;;;;;;2.57;2.37;;;;;;;10.29;93.38;101719.56;5046586;28;20210;-79
2023/09/25 02:12:12;;;;;;;2.93;2.50;;;;;;;10.29;94.00;101711.56;5051873;28;20217;-79
2023/09/25 02:14:40;;;;;;;3.37;3.07;;;;;;;10.28;94.14;101728.47;5049229;28;20209;-79
2023/09/25 02:17:06;;;;;;;4.53;2.30;;;;;;;10.28;94.03;101717.84;5052934;28;20205;-80
2023/09/25 02:19:33;;;;;;;2.30;2.10;;;;;;;10.27;94.21;101718.75;5050813;28;20233;-79
2023/09/25 02:21:59;;;;;;;3.93;2.60;;;;;;;10.27;94.32;101721.44;5044699;28;20234;-79
2023/09/25 02:24:26;;;;;;;2.60;2.40;;;;;;;10.28;94.23;101724.97;5047769;28;20214;-79
2023/09/25 02:26:52;;;;;;;3.10;2.80;;;;;;;10.29;94.18;101724.03;5052511;28;20590;-80
2023/09/25 02:29:20;;;;;;;3.23;2.50;;;;;;;10.28;93.75;101728.47;5050017;28;20234;-79
2023/09/25 02:31:48;;;;;;;3.63;2.50;;;;;;;10.28;94.00;101724.97;5042320;28;20284;-80
2023/09/25 02:34:16;;;;;;;3.37;3.07;;;;;;;10.27;94.01;101718.75;5048170;28;20201;-79
2023/09/25 02:36:43;;;;;;;3.00;2.70;;;;;;;10.27;93.60;101712.56;5046939;28;20214;-79
2023/09/25 02:39:09;;;;;;;3.70;2.67;;;;;;;10.28;93.71;101716.97;5043107;28;20205;-79
2023/09/25 02:41:36;;;;;;;2.87;2.47;;;;;;;10.26;93.60;101703.72;5041691;28;20238;-79
2023/09/25 02:44:03;;;;;;;2.77;2.57;;;;;;;10.27;93.60;101705.44;5042660;28;20213;-79
2023/09/25 02:46:29;;;;;;;2.60;2.40;;;;;;;10.26;93.69;101708.19;5049257;28;20208;-80
2023/09/25 02:48:57;;;;;;;3.27;2.67;;;;;;;10.24;93.44;101702.91;5044236;28;20488;-81
2023/09/25 02:51:23;;;;;;;3.13;2.93;;;;;;;10.22;93.69;101707.44;5042331;28;20222;-80
2023/09/25 02:53:51;;;;;;;2.57;2.37;;;;;;;10.22;93.30;101706.59;5046368;28;20203;-80
2023/09/25 02:56:18;;;;;;;3.80;3.00;;;;;;;10.20;93.52;101703.16;5051896;28;20220;-80
2023/09/25 02:58:45;;;;;;;3.90;2.70;;;;;;;10.19;93.27;101704.94;5049814;28;20215;-80
2023/09/25 03:01:11;;;;;;;2.70;2.50;;;;;;;10.17;93.64;101706.78;5052090;28;20222;-79
2023/09/25 03:03:39;;;;;;;3.23;2.60;;;;;;;10.18;93.76;101703.19;5051808;28;20221;-80
2023/09/25 03:06:07;;;;;;;5.07;2.80;;;;;;;10.17;93.85;101704.13;5051663;28;20213;-79
2023/09/25 03:08:33;;;;;;;3.47;2.70;;;;;;;10.15;93.70;101700.66;5042615;28;20210;-79
2023/09/25 03:11:00;;;;;;;2.50;2.30;;;;;;;10.13;93.67;101704.31;5048508;28;20412;-81
2023/09/25 03:13:26;;;;;;;2.83;2.60;;;;;;;10.12;93.98;101697.25;5044005;28;20579;-79
2023/09/25 03:15:53;;;;;;;4.50;3.00;;;;;;;10.07;93.93;101695.66;5046393;28;20212;-80
2023/09/25 03:18:21;;;;;;;2.70;2.50;;;;;;;10.07;94.63;101702.78;5042001;28;20229;-81
2023/09/25 03:20:47;;;;;;;2.97;2.77;;;;;;;10.08;94.52;101712.50;5043808;28;20599;-80
2023/09/25 03:23:15;;;;;;;3.37;3.00;;;;;;;10.06;94.35;101707.25;5048525;28;20260;-80
2023/09/25 03:25:42;;;;;;;3.47;2.70;;;;;;;10.03;94.43;101698.56;5044248;28;20675;-79
2023/09/25 03:28:09;;;;;;;3.30;2.33;;;;;;;9.97;93.57;101696.16;5045754;28;20203;-80
2023/09/25 03:30:35;;;;;;;2.60;2.40;;;;;;;9.92;93.10;101709.66;5049522;28;20222;-79
2023/09/25 03:33:02;;;;;;;3.07;2.40;;;;;;;9.89;93.61;101700.94;5047058;28;20211;-80
2023/09/25 03:35:28;;;;;;;2.77;2.33;;;;;;;9.85;93.80;101708.22;5041206;28;20276;-79
2023/09/25 03:37:54;;;;;;;2.87;2.60;;;;;;;9.84;94.64;101716.25;5046775;28;20213;-79
2023/09/25 03:40:22;;;;;;;2.60;2.40;;;;;;;9.86;95.06;101709.03;5043625;28;20205;-79
2023/09/25 03:42:49;;;;;;;3.27;2.97;;;;;;;9.89;96.10;101707.13;5039733;28;20233;-79
2023/09/25 03:45:15;;;;;;;3.60;2.73;;;;;;;9.94;96.39;101706.94;5049720;28;20207;-79
2023/09/25 03:47:42;;;;;;;3.03;2.83;;;;;;;9.97;96.83;101706.78;5053747;28;20208;-79
2023/09/25 03:50:10;;;;;;;4.57;3.30;;;;;;;10.01;97.22;101700.41;5067928;28;20546;-80
2023/09/25 03:52:37;;;;;;;3.27;3.07;;;;;;;10.05;97.70;101701.97;5039729;28;20627;-79
2023/09/25 03:55:04;;;;;;;3.43;3.13;;;;;;;10.11;97.89;101701.72;5050580;28;20272;-79
2023/09/25 03:57:31;;;;;;;3.87;3.47;;;;;;;10.13;97.66;101701.66;5052593;28;20213;-79
2023/09/25 03:59:58;;;;;;;4.97;3.57;;;;;;;10.16;98.03;101707.72;5041990;28;20213;-79
2023/09/25 04:02:24;;;;;;;4.03;3.60;;;;;;;10.19;98.09;101701.44;5052223;28;20238;-80
2023/09/25 04:04:51;;;;;;;3.70;3.30;;;;;;;10.24;98.19;101708.25;5038426;28;20757;-79
2023/09/25 04:07:18;;;;;;;3.30;3.00;;;;;;;10.30;98.12;101712.44;5038266;28;20214;-80
2023/09/25 04:09:44;;;;;;;4.33;3.33;;;;;;;10.34;97.83;101706.91;5048281;28;20224;-79
2023/09/25 04:12:11;;;;;;;4.20;3.10;;;;;;;10.36;97.39;101715.69;5054953;28;20218;-79
2023/09/25 04:14:40;;;;;;;3.63;3.33;;;;;;;10.37;97.12;101712.09;5045160;28;20205;-79
2023/09/25 04:17:08;;;;;;;4.40;3.13;;;;;;;10.38;96.49;101711.16;5043356;28;20214;-81
2023/09/25 04:19:34;;;;;;;3.90;3.50;;;;;;;10.34;95.36;101722.03;5049759;28;20292;-81
2023/09/25 04:22:06;;;;;;;3.97;3.57;;;;;;;10.27;94.72;101721.44;5039653;28;20224;-80
2023/09/25 04:24:33;;;;;;;4.80;3.70;;;;;;;10.20;94.43;101727.13;5049117;28;20230;-81
2023/09/25 04:27:02;;;;;;;3.90;3.50;;;;;;;10.16;95.12;101729.00;5046738;28;20296;-80
2023/09/25 04:29:28;;;;;;;3.90;3.60;;;;;;;10.11;95.35;101717.69;5050167;28;20213;-79
2023/09/25 04:31:56;;;;;;;4.47;3.77;;;;;;;10.09;95.86;101719.56;5047322;28;20577;-81
2023/09/25 04:34:22;;;;;;;4.00;3.70;;;;;;;10.09;96.05;101719.56;5043741;28;20210;-79
2023/09/25 04:36:49;;;;;;;4.20;3.80;;;;;;;10.08;95.92;101715.16;5048232;28;20860;-80
2023/09/25 04:39:16;;;;;;;4.07;3.63;;;;;;;10.05;94.71;101715.28;5052281;28;20647;-81
2023/09/25 04:41:43;;;;;;;3.67;3.33;;;;;;;9.98;94.21;101721.84;5049745;28;20230;-80
2023/09/25 04:44:09;;;;;;;6.00;3.73;;;;;;;9.93;94.36;101715.84;5046510;28;20229;-80
2023/09/25 04:46:37;;;;;;;4.77;4.10;;;;;;;9.89;94.48;101708.91;5051346;28;20221;-80
2023/09/25 04:49:06;;;;;;;4.90;3.90;;;;;;;9.88;95.83;101720.47;5047144;28;20210;-81
2023/09/25 04:51:33;;;;;;;5.40;3.90;;;;;;;9.88;96.15;101715.16;5051611;28;20252;-80
2023/09/25 04:54:01;;;;;;;4.47;3.60;;;;;;;9.89;96.41;101719.56;5046851;28;20206;-82
2023/09/25 04:56:28;;;;;;;4.13;3.60;;;;;;;9.89;96.87;101707.13;5045426;28;20210;-80
2023/09/25 04:58:54;;;;;;;3.57;3.27;;;;;;;9.90;97.58;101716.84;5050335;28;20638;-80
2023/09/25 05:01:21;;;;;;;3.60;3.30;;;;;;;9.92;97.78;101720.28;5045852;28;20231;-79
2023/09/25 05:03:47;;;;;;;3.97;3.63;;;;;;;9.94;97.48;101714.91;5044720;28;20785;-80
2023/09/25 05:06:15;;;;;;;4.37;3.60;;;;;;;9.95;97.89;101717.50;5046777;28;20569;-80
2023/09/25 05:08:43;;;;;;;7.87;4.67;;;;;;;10.00;98.31;101715.53;5052105;28;20209;-80
2023/09/25 05:11:10;;;;;;;4.40;4.00;;;;;;;10.06;98.54;101719.69;5051604;28;20643;-80
2023/09/25 05:13:37;;;;;;;4.63;3.90;;;;;;;10.10;98.46;101719.47;5050289;28;20240;-81
2023/09/25 05:16:04;;;;;;;4.37;3.40;;;;;;;10.16;98.42;101729.00;5047623;28;20215;-80
2023/09/25 05:18:31;;;;;;;5.07;3.53;;;;;;;10.23;98.32;101729.63;5049893;28;20233;-80
2023/09/25 05:20:58;;;;;;;4.10;3.43;;;;;;;10.29;97.91;101729.34;5048451;28;20232;-80
2023/09/25 05:23:26;;;;;;;3.13;2.83;;;;;;;10.36;97.73;101731.69;5048542;28;20227;-81
2023/09/25 05:25:53;;;;;;;4.70;2.87;;;;;;;10.44;97.32;101726.84;5047453;28;20198;-80
2023/09/25 05:28:19;;;;;;;3.77;3.07;;;;;;;10.52;96.96;101730.97;5054137;28;20253;-81
2023/09/25 05:30:47;;;;;;;3.07;2.77;;;;;;;10.59;96.31;101738.59;5050925;28;20302;-80
2023/09/25 05:33:14;;;;;;;3.40;2.97;;;;;;;10.66;96.22;101736.53;5046645;28;20207;-80
2023/09/25 05:35:40;;;;;;;3.23;2.83;;;;;;;10.73;96.10;101732.66;5048539;28;20202;-81
2023/09/25 05:38:07;;;;;;;4.33;3.60;;;;;;;10.81;95.20;101733.13;5044368;28;20210;-81
2023/09/25 05:40:35;;;;;;;4.90;3.60;;;;;;;10.88;95.02;101737.25;5049568;28;20612;-82
2023/09/25 05:43:02;;;;;;;3.43;3.13;;;;;;;10.95;94.66;101732.47;5051352;28;20223;-81
2023/09/25 05:45:29;;;;;;;3.60;3.23;;;;;;;10.99;94.43;101734.06;5048180;28;21875;-80
2023/09/25 05:47:55;;;;;;;4.83;2.90;;;;;;;11.04;93.82;101737.38;5052547;28;20217;-81
2023/09/25 05:50:22;;;;;;;2.70;2.50;;;;;;;11.10;93.38;101729.97;5054442;28;20364;-80
2023/09/25 05:52:49;;;;;;;3.53;2.73;;;;;;;11.18;92.92;101748.25;5051106;28;20210;-80
2023/09/25 05:55:16;;;;;;;3.63;2.47;;;;;;;11.21;92.58;101741.91;5049180;28;20210;-80
2023/09/25 05:57:46;;;;;;;3.50;2.47;;;;;;;11.25;92.22;101741.69;5048299;28;20209;-81
2023/09/25 06:00:14;;;;;;;2.77;2.57;;;;;;;11.30;91.87;101742.31;5051815;28;20202;-81
2023/09/25 06:02:42;;;;;;;2.63;2.43;;;;;;;11.35;91.68;101750.09;5049142;28;20693;-81
2023/09/25 06:05:09;;;;;;;3.43;2.53;;;;;;;11.40;91.26;101748.94;5051078;28;20207;-81
2023/09/25 06:07:36;;;;;;;3.23;2.67;;;;;;;11.46;90.73;101747.78;5050077;28;20230;-80
2023/09/25 06:10:03;;;;;;;2.73;2.40;;;;;;;11.50;90.84;101749.31;5050283;28;20213;-81
2023/09/25 06:12:30;;;;;;;2.50;2.27;;;;;;;11.54;90.85;101748.25;5050613;28;20327;-81
2023/09/25 06:14:58;;;;;;;2.63;2.30;;;;;;;11.60;90.49;101755.94;5050144;28;20649;-80
2023/09/25 06:17:26;;;;;;;2.50;2.30;;;;;;;11.64;90.10;101757.53;5043200;28;20207;-81
2023/09/25 06:19:54;;;;;;;4.10;2.40;;;;;;;11.71;89.63;101753.59;5050987;28;20235;-80
2023/09/25 06:22:21;;;;;;;3.17;2.23;;;;;;;11.75;89.57;101749.84;5048905;28;20251;-80
2023/09/25 06:24:47;;;;;;;4.23;2.80;;;;;;;11.78;89.61;101760.41;5049691;28;20223;-81
2023/09/25 06:27:14;;;;;;;2.90;2.60;;;;;;;11.83;89.13;101754.78;5043678;28;20594;-82
2023/09/25 06:29:42;;;;;;;4.43;2.60;;;;;;;11.91;88.60;101754.41;5043287;28;20251;-82
2023/09/25 06:32:10;;;;;;;3.77;2.50;;;;;;;11.95;88.31;101758.66;5047396;28;20249;-80
2023/09/25 06:34:38;;;;;;;4.13;2.37;;;;;;;11.99;88.05;101762.91;5049084;28;20205;-80
2023/09/25 06:37:05;;;;;;;2.70;2.13;;;;;;;12.03;87.39;101754.63;5050241;28;20296;-80
2023/09/25 06:39:33;;;;;;;2.73;2.40;;;;;;;12.04;87.65;101758.19;5046857;28;20208;-80
2023/09/25 06:41:59;;;;;;;2.60;2.40;;;;;;;12.08;87.67;101760.63;5044766;28;20257;-80
2023/09/25 06:44:26;;;;;;;2.43;2.10;;;;;;;12.15;87.29;101755.81;5046108;28;20229;-80
2023/09/25 06:46:52;;;;;;;2.70;2.37;;;;;;;12.19;86.80;101762.72;5049987;28;20204;-80
2023/09/25 06:49:22;;;;;;;2.83;2.30;;;;;;;12.24;87.00;101765.16;5046773;28;20211;-80
2023/09/25 06:51:48;;;;;;;4.07;2.37;;;;;;;12.28;86.93;101764.91;5044083;28;20331;-80
2023/09/25 06:54:15;;;;;;;3.83;2.20;;;;;;;12.30;86.56;101762.16;5046502;28;20208;-80
2023/09/25 06:56:41;;;;;;;2.20;2.00;;;;;;;12.37;86.29;101766.22;5048699;28;20198;-80
2023/09/25 06:59:08;;;;;;;4.37;2.60;;;;;;;12.42;85.98;101758.84;5047191;28;20206;-80
2023/09/25 07:01:35;;;;;;;2.30;2.10;;;;;;;12.45;85.69;101762.22;5044211;28;20229;-80
2023/09/25 07:04:01;;;;;;;3.70;1.93;;;;;;;12.54;86.09;101766.19;5043931;28;20629;-80
2023/09/25 07:06:30;;;;;;;3.53;2.43;;;;;;;12.61;84.93;101756.91;5046937;28;20216;-81
2023/09/25 07:08:57;;;;;;;2.50;2.30;;;;;;;12.69;84.50;101757.38;5050185;28;20672;-80
2023/09/25 07:11:23;;;;;;;2.27;1.97;;;;;;;12.75;83.84;101757.00;5040956;28;20234;-80
2023/09/25 07:13:50;;;;;;;4.67;1.97;;;;;;;12.81;84.14;101763.84;5039473;28;20197;-81
2023/09/25 07:16:16;;;;;;;3.00;2.10;;;;;;;12.84;83.82;101753.84;5042622;28;20209;-80
2023/09/25 07:18:43;;;;;;;3.17;2.40;;;;;;;12.91;83.79;101757.03;5043452;28;20209;-80
2023/09/25 07:21:10;;;;;;;2.57;1.83;;;;;;;12.97;83.67;101759.34;5040696;28;20283;-80
2023/09/25 07:23:38;;;;;;;2.17;1.93;;;;;;;13.01;83.12;101766.28;5048440;28;20717;-80
2023/09/25 07:26:07;;;;;;;2.30;2.13;;;;;;;13.10;82.90;101765.75;5052990;28;20236;-80
2023/09/25 07:28:34;;;;;;;3.97;2.30;;;;;;;13.18;82.31;101758.19;5052676;28;20764;-80
2023/09/25 07:31:01;;;;;;;2.60;2.20;;;;;;;13.29;82.22;101767.41;5047818;28;20757;-80
2023/09/25 07:33:28;;;;;;;2.80;1.97;;;;;;;13.39;81.67;101761.47;5047789;28;20201;-80
2023/09/25 07:35:55;;;;;;;2.40;2.00;;;;;;;13.53;80.83;101766.00;5050799;28;20270;-80
2023/09/25 07:38:22;;;;;;;2.63;1.83;;;;;;;13.66;80.50;101761.66;5047716;28;20205;-80
2023/09/25 07:40:50;;;;;;;3.47;1.80;;;;;;;13.82;79.66;101764.28;5048955;28;20225;-80
2023/09/25 07:43:19;;;;;;;2.13;1.90;;;;;;;13.96;78.61;101763.50;5048346;28;20720;-80
2023/09/25 07:45:48;;;;;;;2.60;1.73;;;;;;;14.08;77.44;101768.13;5047893;28;20287;-79
2023/09/25 07:48:14;;;;;;;4.13;2.00;;;;;;;14.23;77.85;101777.91;5044895;28;20643;-80
2023/09/25 07:50:41;;;;;;;2.50;1.83;;;;;;;14.40;76.24;101772.41;5051528;28;20226;-80
2023/09/25 07:53:07;;;;;;;2.70;1.80;;;;;;;14.53;75.97;101769.81;5051546;28;20650;-81
2023/09/25 07:55:34;;;;;;;1.83;1.73;;;;;;;14.66;73.77;101765.44;5050202;28;20237;-80
2023/09/25 07:58:03;;;;;;;2.40;1.90;;;;;;;14.80;73.60;101765.41;5052030;28;20592;-80
2023/09/25 08:00:37;;;;;;;1.70;1.60;;;;;;;14.93;71.65;101762.81;5041937;28;20229;-81
2023/09/25 08:03:04;;;;;;;2.60;1.97;;;;;;;15.04;71.07;101756.78;5044109;28;20237;-80
2023/09/25 08:05:30;;;;;;;1.90;1.60;;;;;;;15.16;71.15;101766.72;5048898;28;20199;-81
2023/09/25 08:07:57;;;;;;;1.60;1.50;;;;;;;15.30;71.18;101763.97;5052018;28;20240;-80
2023/09/25 08:10:23;;;;;;;1.90;1.50;;;;;;;15.44;70.36;101763.06;5050155;28;20222;-80
2023/09/25 08:12:50;;;;;;;1.83;1.50;;;;;;;15.58;70.01;101763.94;5052635;28;20217;-80
2023/09/25 08:15:18;;;;;;;1.57;1.43;;;;;;;15.72;69.10;101763.00;5043636;28;20204;-80
2023/09/25 08:17:45;;;;;;;1.80;1.50;;;;;;;15.88;67.84;101766.38;5049632;28;21007;-80
2023/09/25 08:20:18;;;;;;;1.77;1.40;;;;;;;16.01;67.13;101761.00;5052661;28;20226;-80
2023/09/25 08:22:45;;;;;;;2.67;1.57;;;;;;;16.17;66.15;101763.50;5052794;28;20207;-80
2023/09/25 08:25:11;;;;;;;1.93;1.50;;;;;;;16.26;65.96;101761.06;5046909;28;20241;-80
2023/09/25 08:27:39;;;;;;;1.57;1.43;;;;;;;16.40;65.22;101757.41;5045954;28;20198;-81
2023/09/25 08:30:07;;;;;;;2.77;1.40;;;;;;;16.55;65.68;101761.69;5045797;28;20215;-81
2023/09/25 08:32:35;;;;;;;2.63;1.47;;;;;;;16.64;64.64;101766.47;5042280;28;20204;-80
2023/09/25 08:35:03;;;;;;;1.50;1.40;;;;;;;16.75;63.90;101756.75;5041507;28;20218;-80
2023/09/25 08:37:29;;;;;;;1.37;1.27;;;;;;;16.85;63.55;101755.09;5042384;28;20290;-80
2023/09/25 08:39:56;;;;;;;1.77;1.40;;;;;;;16.98;63.67;101762.22;5048549;28;20210;-80
2023/09/25 08:42:24;;;;;;;3.40;1.50;;;;;;;17.10;62.71;101759.59;5047746;28;20229;-80
2023/09/25 08:44:52;;;;;;;1.97;1.60;;;;;;;17.19;62.61;101751.72;5043648;28;20232;-80
2023/09/25 08:47:20;;;;;;;4.03;1.83;;;;;;;17.34;62.79;101757.78;5045268;28;20225;-80
2023/09/25 08:49:50;;;;;;;1.40;1.30;;;;;;;17.45;61.63;101746.19;5049829;28;20229;-80
2023/09/25 08:52:17;;;;;;;2.40;1.50;;;;;;;17.53;61.31;101749.19;5049511;28;20227;-80
2023/09/25 08:54:43;;;;;;;1.57;1.40;;;;;;;17.61;61.14;101750.31;5045357;28;20211;-81
2023/09/25 08:57:10;;;;;;;1.60;1.50;;;;;;;17.75;60.56;101754.69;5045703;28;20240;-80
2023/09/25 08:59:38;;;;;;;2.30;1.70;;;;;;;17.83;59.93;101746.91;5046077;28;20219;-81
2023/09/25 09:02:05;;;;;;;1.67;1.53;;;;;;;17.92;58.81;101748.00;5048554;28;20242;-80
2023/09/25 09:04:31;;;;;;;1.30;1.20;;;;;;;18.00;59.76;101749.16;5043402;28;20239;-80
2023/09/25 09:06:59;;;;;;;1.77;1.60;;;;;;;18.15;60.15;101746.25;5047783;28;20750;-81
2023/09/25 09:09:26;;;;;;;2.37;1.30;;;;;;;18.28;57.88;101739.75;5044019;28;20587;-81
2023/09/25 09:11:53;;;;;;;1.60;1.20;;;;;;;18.39;58.16;101737.09;5036520;28;20231;-81
2023/09/25 09:14:33;;;;;;;1.57;1.40;;;;;;;18.51;58.18;101743.34;5045510;28;20215;-81
2023/09/25 09:17:04;;;;;;;1.47;1.30;;;;;;;18.59;57.57;101740.94;5048182;28;20208;-81
2023/09/25 09:19:34;;;;;;;3.43;1.27;;;;;;;18.69;57.44;101741.91;5041209;28;20248;-81
2023/09/25 09:22:06;;;;;;;1.13;1.03;;;;;;;18.79;57.15;101742.06;5046871;28;20224;-81
2023/09/25 09:24:35;;;;;;;1.37;1.27;;;;;;;18.91;54.61;101732.09;5044416;28;20239;-81
2023/09/25 09:27:07;;;;;;;1.60;1.00;;;;;;;18.95;54.76;101734.44;5045818;28;20283;-81
2023/09/25 09:29:35;;;;;;;1.80;1.07;;;;;;;19.03;54.64;101733.78;5044978;28;20201;-81
2023/09/25 09:32:02;;;;;;;1.47;1.03;;;;;;;19.09;54.45;101727.88;5050115;28;20227;-81
2023/09/25 09:34:29;;;;;;;2.57;1.30;;;;;;;19.20;52.91;101724.28;5052262;28;20625;-81
2023/09/25 09:36:55;;;;;;;1.67;1.33;;;;;;;19.22;53.54;101727.72;5046558;28;20216;-81
2023/09/25 09:39:25;;;;;;;2.60;1.30;;;;;;;19.27;52.32;101729.06;5045207;28;20664;-81
2023/09/25 09:41:53;;;;;;;2.73;1.30;;;;;;;19.36;53.14;101730.13;5042246;28;20292;-81
2023/09/25 09:44:20;;;;;;;1.50;1.07;;;;;;;19.39;51.52;101728.03;5046655;28;20238;-80
2023/09/25 09:46:47;;;;;;;1.17;0.93;;;;;;;19.43;51.22;101732.22;5041338;28;20204;-80
2023/09/25 09:49:15;;;;;;;2.03;1.20;;;;;;;19.50;51.17;101726.34;5039419;28;20211;-80
2023/09/25 09:51:45;;;;;;;1.10;0.90;;;;;;;19.54;51.55;101728.63;5040809;28;20598;-80
2023/09/25 09:54:13;;;;;;;1.10;1.00;;;;;;;19.57;50.87;101730.22;5042551;28;20226;-80
2023/09/25 09:56:41;;;;;;;2.17;1.00;;;;;;;19.63;51.32;101729.72;5047331;28;20282;-80
2023/09/25 09:59:08;;;;;;;2.40;1.00;;;;;;;19.70;50.93;101725.53;5045988;28;20632;-81
2023/09/25 10:01:35;;;;;;;3.47;1.10;;;;;;;19.79;50.55;101721.16;5039456;28;20254;-79
2023/09/25 10:04:03;;;;;;;3.67;0.90;;;;;;;19.80;49.78;101712.94;5048944;28;20228;-80
2023/09/25 10:06:30;;;;;;;3.13;1.20;;;;;;;19.85;50.66;101715.25;5054123;28;20656;-80
2023/09/25 10:09:01;;;;;;;1.67;1.10;;;;;;;19.91;50.12;101714.69;5048630;28;20261;-80
2023/09/25 10:11:27;;;;;;;1.58;1.30;;;;;;;19.94;50.33;101709.03;5048427;28;20799;-80
2023/09/25 10:13:56;;;;;;;1.43;0.90;;;;;;;19.98;50.24;101710.50;5051991;28;20223;-80
2023/09/25 10:16:22;;;;;;;1.27;1.10;;;;;;;20.02;50.62;101712.81;5050951;28;21266;-80
2023/09/25 10:18:51;;;;;;;1.95;1.00;;;;;;;20.04;50.09;101710.84;5045968;28;20211;-80
2023/09/25 10:21:18;;;;;;;3.87;1.30;;;;;;;20.06;50.01;101714.22;5041457;28;20236;-80
2023/09/25 10:23:48;;;;;;;2.20;1.00;;;;;;;20.12;50.22;101696.63;5049794;28;20212;-81
2023/09/25 10:26:19;;;;;;;1.67;1.08;;;;;;;20.17;49.56;101704.34;5048275;28;20668;-80
2023/09/25 10:28:56;;;;;;;1.10;0.80;;;;;;;20.20;49.74;101695.97;5042744;28;20247;-81
2023/09/25 10:31:29;;;;;;;1.07;0.90;;;;;;;20.25;49.11;101702.66;5048798;28;20236;-81
2023/09/25 10:33:58;;;;;;;1.45;1.10;;;;;;;20.32;49.47;101690.34;5047131;28;20296;-80
2023/09/25 10:36:37;;;;;;;1.80;1.25;;;;;;;20.36;48.76;101697.22;5045562;28;20205;-80
2023/09/25 10:39:06;;;;;;;1.70;1.20;;;;;;;20.34;48.55;101701.03;5044525;28;20702;-80
2023/09/25 10:41:32;;;;;;;2.58;1.27;;;;;;;20.34;48.95;101688.34;5042515;28;20228;-80
2023/09/25 10:43:59;;;;;;;0.97;0.87;;;;;;;20.40;48.93;101687.84;5046182;28;20220;-80
2023/09/25 10:46:27;;;;;;;1.77;1.10;;;;;;;20.45;48.33;101691.00;5050382;28;20205;-81
2023/09/25 10:48:55;;;;;;;1.40;1.08;;;;;;;20.49;47.94;101686.16;5047083;28;20220;-81
2023/09/25 10:51:21;;;;;;;1.55;1.10;;;;;;;20.53;48.23;101695.72;5045359;28;20237;-80
2023/09/25 10:53:48;;;;;;;1.67;1.10;;;;;;;20.59;48.21;101697.91;5049045;28;20229;-81
2023/09/25 10:56:15;;;;;;;1.80;0.90;;;;;;;20.62;47.66;101686.78;5047540;28;20576;-80
2023/09/25 10:58:42;;;;;;;1.70;0.90;;;;;;;20.68;46.74;101680.84;5045743;28;20580;-81
2023/09/25 11:01:09;;;;;;;2.53;1.10;;;;;;;20.77;45.70;101681.88;5053724;28;20229;-81
2023/09/25 11:03:37;;;;;;;1.45;1.00;;;;;;;20.81;47.11;101683.28;5048469;28;20297;-81
2023/09/25 11:06:04;;;;;;;2.83;1.48;;;;;;;20.89;48.05;101679.91;5052974;28;20217;-80
2023/09/25 11:08:34;;;;;;;2.15;1.25;;;;;;;20.93;46.66;101678.63;5047379;28;20204;-81
2023/09/25 11:11:01;;;;;;;1.40;1.20;;;;;;;20.91;46.68;101667.06;5047418;28;20228;-80
2023/09/25 11:13:28;;;;;;;1.40;0.98;;;;;;;20.92;46.23;101672.34;5050345;28;20209;-81
2023/09/25 11:15:55;;;;;;;1.13;1.02;;;;;;;20.91;46.57;101667.06;5046282;28;20674;-81
2023/09/25 11:18:21;;;;;;;2.22;1.00;;;;;;;20.91;46.58;101672.50;5045374;28;20582;-80
2023/09/25 11:20:51;;;;;;;1.60;1.10;;;;;;;20.93;46.36;101665.94;5041307;28;20740;-81
2023/09/25 11:23:19;;;;;;;1.08;0.95;;;;;;;20.94;45.74;101658.69;5046673;28;20292;-80
2023/09/25 11:25:47;;;;;;;1.55;1.25;;;;;;;20.95;45.17;101658.53;5046662;28;20841;-81
2023/09/25 11:28:16;;;;;;;1.17;1.08;;;;;;;20.97;45.26;101661.09;5052423;28;20208;-78